sensor_id;sensor_type;location;lat;lon;timestamp;temperature;humidity
7163;DHT22;3623;47.098;15.446;2024-01-07T00:00:13;4.40;99.90
7163;DHT22;3623;47.098;15.446;2024-01-07T00:02:40;4.60;99.90
7163;DHT22;3623;47.098;15.446;2024-01-07T00:05:09;4.30;99.90
7163;DHT22;3623;47.098;15.446;2024-01-07T00:07:36;4.50;99.90
7163;DHT22;3623;47.098;15.446;2024-01-07T00:10:04;4.60;99.90
7163;DHT22;3623;47.098;15.446;2024-01-07T00:12:31;4.20;99.90
7163;DHT22;3623;47.098;15.446;2024-01-07T00:14:58;4.60;99.90
7163;DHT22;3623;47.098;15.446;2024-01-07T00:17:25;4.50;99.90
7163;DHT22;3623;47.098;15.446;2024-01-07T00:19:52;4.60;99.90
7163;DHT22;3623;47.098;15.446;2024-01-07T00:22:21;4.60;99.90
7163;DHT22;3623;47.098;15.446;2024-01-07T00:24:48;4.60;99.90
7163;DHT22;3623;47.098;15.446;2024-01-07T00:27:16;4.60;99.90
7163;DHT22;3623;47.098;15.446;2024-01-07T00:29:43;4.60;99.90
7163;DHT22;3623;47.098;15.446;2024-01-07T00:32:10;4.60;99.90
7163;DHT22;3623;47.098;15.446;2024-01-07T00:34:38;4.70;99.90
7163;DHT22;3623;47.098;15.446;2024-01-07T00:37:05;4.60;99.90
7163;DHT22;3623;47.098;15.446;2024-01-07T00:39:33;4.70;99.90
7163;DHT22;3623;47.098;15.446;2024-01-07T00:42:00;4.90;99.90
7163;DHT22;3623;47.098;15.446;2024-01-07T00:44:27;4.90;99.90
7163;DHT22;3623;47.098;15.446;2024-01-07T00:46:55;4.70;99.90
7163;DHT22;3623;47.098;15.446;2024-01-07T00:49:22;4.70;99.90
7163;DHT22;3623;47.098;15.446;2024-01-07T00:51:49;4.90;99.90
7163;DHT22;3623;47.098;15.446;2024-01-07T00:54:16;4.70;99.90
7163;DHT22;3623;47.098;15.446;2024-01-07T00:56:45;4.80;99.90
7163;DHT22;3623;47.098;15.446;2024-01-07T00:59:12;4.80;99.90
7163;DHT22;3623;47.098;15.446;2024-01-07T01:01:39;4.70;99.90
7163;DHT22;3623;47.098;15.446;2024-01-07T01:04:06;4.90;99.90
7163;DHT22;3623;47.098;15.446;2024-01-07T01:06:33;4.70;99.90
7163;DHT22;3623;47.098;15.446;2024-01-07T01:09:01;5.00;99.90
7163;DHT22;3623;47.098;15.446;2024-01-07T01:11:28;4.70;99.90
7163;DHT22;3623;47.098;15.446;2024-01-07T01:13:56;4.70;99.90
7163;DHT22;3623;47.098;15.446;2024-01-07T01:16:24;4.70;99.90
7163;DHT22;3623;47.098;15.446;2024-01-07T01:18:51;4.70;99.90
7163;DHT22;3623;47.098;15.446;2024-01-07T01:21:18;4.70;99.90
7163;DHT22;3623;47.098;15.446;2024-01-07T01:23:46;4.90;99.90
7163;DHT22;3623;47.098;15.446;2024-01-07T01:26:14;4.80;99.90
7163;DHT22;3623;47.098;15.446;2024-01-07T01:28:41;4.80;99.90
7163;DHT22;3623;47.098;15.446;2024-01-07T01:31:12;4.90;99.90
7163;DHT22;3623;47.098;15.446;2024-01-07T01:33:40;4.80;99.90
7163;DHT22;3623;47.098;15.446;2024-01-07T01:36:08;4.90;99.90
7163;DHT22;3623;47.098;15.446;2024-01-07T01:38:35;5.00;99.90
7163;DHT22;3623;47.098;15.446;2024-01-07T01:41:02;4.80;99.90
7163;DHT22;3623;47.098;15.446;2024-01-07T01:43:30;5.00;99.90
7163;DHT22;3623;47.098;15.446;2024-01-07T01:45:58;4.90;99.90
7163;DHT22;3623;47.098;15.446;2024-01-07T01:48:27;4.90;99.90
7163;DHT22;3623;47.098;15.446;2024-01-07T01:50:55;4.90;99.90
7163;DHT22;3623;47.098;15.446;2024-01-07T01:53:24;5.00;99.90
7163;DHT22;3623;47.098;15.446;2024-01-07T01:55:53;4.90;99.90
7163;DHT22;3623;47.098;15.446;2024-01-07T01:58:22;4.90;99.90
7163;DHT22;3623;47.098;15.446;2024-01-07T02:00:50;5.00;99.90
7163;DHT22;3623;47.098;15.446;2024-01-07T02:03:18;5.10;99.90
7163;DHT22;3623;47.098;15.446;2024-01-07T02:05:48;4.90;99.90
7163;DHT22;3623;47.098;15.446;2024-01-07T02:08:16;4.90;99.90
7163;DHT22;3623;47.098;15.446;2024-01-07T02:10:44;4.90;99.90
7163;DHT22;3623;47.098;15.446;2024-01-07T02:13:11;5.10;99.90
7163;DHT22;3623;47.098;15.446;2024-01-07T02:15:38;5.10;99.90
7163;DHT22;3623;47.098;15.446;2024-01-07T02:18:05;5.00;99.90
7163;DHT22;3623;47.098;15.446;2024-01-07T02:20:32;4.90;99.90
7163;DHT22;3623;47.098;15.446;2024-01-07T02:23:03;5.40;99.90
7163;DHT22;3623;47.098;15.446;2024-01-07T02:25:36;4.70;99.90
7163;DHT22;3623;47.098;15.446;2024-01-07T02:28:04;5.00;99.90
7163;DHT22;3623;47.098;15.446;2024-01-07T02:30:31;5.20;99.90
7163;DHT22;3623;47.098;15.446;2024-01-07T02:33:01;5.00;99.90
7163;DHT22;3623;47.098;15.446;2024-01-07T02:35:30;5.00;99.90
7163;DHT22;3623;47.098;15.446;2024-01-07T02:37:57;5.00;99.90
7163;DHT22;3623;47.098;15.446;2024-01-07T02:40:24;5.00;99.90
7163;DHT22;3623;47.098;15.446;2024-01-07T02:42:52;5.00;99.90
7163;DHT22;3623;47.098;15.446;2024-01-07T02:45:21;5.10;99.90
7163;DHT22;3623;47.098;15.446;2024-01-07T02:47:48;4.90;99.90
7163;DHT22;3623;47.098;15.446;2024-01-07T02:50:15;5.50;99.90
7163;DHT22;3623;47.098;15.446;2024-01-07T02:52:42;4.80;99.90
7163;DHT22;3623;47.098;15.446;2024-01-07T02:55:10;5.10;99.90
7163;DHT22;3623;47.098;15.446;2024-01-07T02:57:37;5.00;99.90
7163;DHT22;3623;47.098;15.446;2024-01-07T03:00:06;4.90;99.90
7163;DHT22;3623;47.098;15.446;2024-01-07T03:02:34;5.00;99.90
7163;DHT22;3623;47.098;15.446;2024-01-07T03:05:01;4.90;99.90
7163;DHT22;3623;47.098;15.446;2024-01-07T03:07:28;5.00;99.90
7163;DHT22;3623;47.098;15.446;2024-01-07T03:09:55;4.90;99.90
7163;DHT22;3623;47.098;15.446;2024-01-07T03:12:22;5.00;99.90
7163;DHT22;3623;47.098;15.446;2024-01-07T03:14:49;5.10;99.90
7163;DHT22;3623;47.098;15.446;2024-01-07T03:17:17;5.00;99.90
7163;DHT22;3623;47.098;15.446;2024-01-07T03:19:44;5.10;99.90
7163;DHT22;3623;47.098;15.446;2024-01-07T03:22:11;4.90;99.90
7163;DHT22;3623;47.098;15.446;2024-01-07T03:24:38;5.00;99.90
7163;DHT22;3623;47.098;15.446;2024-01-07T03:27:05;4.80;99.90
7163;DHT22;3623;47.098;15.446;2024-01-07T03:29:32;4.80;99.90
7163;DHT22;3623;47.098;15.446;2024-01-07T03:32:01;5.00;99.90
7163;DHT22;3623;47.098;15.446;2024-01-07T03:34:30;4.80;99.90
7163;DHT22;3623;47.098;15.446;2024-01-07T03:36:57;4.90;99.90
7163;DHT22;3623;47.098;15.446;2024-01-07T03:39:24;5.10;99.90
7163;DHT22;3623;47.098;15.446;2024-01-07T03:41:54;4.80;99.90
7163;DHT22;3623;47.098;15.446;2024-01-07T03:44:21;4.80;99.90
7163;DHT22;3623;47.098;15.446;2024-01-07T03:46:48;4.60;99.90
7163;DHT22;3623;47.098;15.446;2024-01-07T03:49:16;4.80;99.90
7163;DHT22;3623;47.098;15.446;2024-01-07T03:51:45;4.80;99.90
7163;DHT22;3623;47.098;15.446;2024-01-07T03:54:12;4.60;99.90
7163;DHT22;3623;47.098;15.446;2024-01-07T03:56:39;4.70;99.90
7163;DHT22;3623;47.098;15.446;2024-01-07T03:59:06;4.70;99.90
7163;DHT22;3623;47.098;15.446;2024-01-07T04:01:34;4.80;99.90
7163;DHT22;3623;47.098;15.446;2024-01-07T04:04:01;4.60;99.90
7163;DHT22;3623;47.098;15.446;2024-01-07T04:06:28;4.70;99.90
7163;DHT22;3623;47.098;15.446;2024-01-07T04:08:57;4.70;99.90
7163;DHT22;3623;47.098;15.446;2024-01-07T04:11:24;4.70;99.90
7163;DHT22;3623;47.098;15.446;2024-01-07T04:13:51;4.70;99.90
7163;DHT22;3623;47.098;15.446;2024-01-07T04:16:19;4.70;99.90
7163;DHT22;3623;47.098;15.446;2024-01-07T04:18:46;4.80;99.90
7163;DHT22;3623;47.098;15.446;2024-01-07T04:21:13;4.50;99.90
7163;DHT22;3623;47.098;15.446;2024-01-07T04:23:41;4.50;99.90
7163;DHT22;3623;47.098;15.446;2024-01-07T04:26:10;4.40;99.90
7163;DHT22;3623;47.098;15.446;2024-01-07T04:28:41;4.00;99.90
7163;DHT22;3623;47.098;15.446;2024-01-07T04:31:08;4.50;99.90
7163;DHT22;3623;47.098;15.446;2024-01-07T04:33:35;4.40;99.90
7163;DHT22;3623;47.098;15.446;2024-01-07T04:36:03;4.50;99.90
7163;DHT22;3623;47.098;15.446;2024-01-07T04:38:31;4.60;99.90
7163;DHT22;3623;47.098;15.446;2024-01-07T04:40:58;4.40;99.90
7163;DHT22;3623;47.098;15.446;2024-01-07T04:43:26;4.50;99.90
7163;DHT22;3623;47.098;15.446;2024-01-07T04:45:53;4.50;99.90
7163;DHT22;3623;47.098;15.446;2024-01-07T04:48:20;4.50;99.90
7163;DHT22;3623;47.098;15.446;2024-01-07T04:50:47;4.40;99.90
7163;DHT22;3623;47.098;15.446;2024-01-07T04:53:14;4.40;99.90
7163;DHT22;3623;47.098;15.446;2024-01-07T04:55:41;4.10;99.90
7163;DHT22;3623;47.098;15.446;2024-01-07T04:58:07;4.30;99.90
7163;DHT22;3623;47.098;15.446;2024-01-07T05:00:36;4.20;99.90
7163;DHT22;3623;47.098;15.446;2024-01-07T05:03:03;4.40;99.90
7163;DHT22;3623;47.098;15.446;2024-01-07T05:05:30;4.30;99.90
7163;DHT22;3623;47.098;15.446;2024-01-07T05:07:57;4.20;99.90
7163;DHT22;3623;47.098;15.446;2024-01-07T05:10:26;4.80;99.90
7163;DHT22;3623;47.098;15.446;2024-01-07T05:12:56;4.30;99.90
7163;DHT22;3623;47.098;15.446;2024-01-07T05:15:23;5.10;99.90
7163;DHT22;3623;47.098;15.446;2024-01-07T05:17:51;4.20;99.90
7163;DHT22;3623;47.098;15.446;2024-01-07T05:20:19;4.20;99.90
7163;DHT22;3623;47.098;15.446;2024-01-07T05:22:46;4.20;99.90
7163;DHT22;3623;47.098;15.446;2024-01-07T05:25:13;4.40;99.90
7163;DHT22;3623;47.098;15.446;2024-01-07T05:27:40;4.10;99.90
7163;DHT22;3623;47.098;15.446;2024-01-07T05:30:07;4.30;99.90
7163;DHT22;3623;47.098;15.446;2024-01-07T05:32:34;4.20;99.90
7163;DHT22;3623;47.098;15.446;2024-01-07T05:35:03;3.90;99.90
7163;DHT22;3623;47.098;15.446;2024-01-07T05:37:31;3.90;99.90
7163;DHT22;3623;47.098;15.446;2024-01-07T05:39:58;4.10;99.90
7163;DHT22;3623;47.098;15.446;2024-01-07T05:42:25;4.10;99.90
7163;DHT22;3623;47.098;15.446;2024-01-07T05:44:55;4.30;99.90
7163;DHT22;3623;47.098;15.446;2024-01-07T05:47:22;4.20;99.90
7163;DHT22;3623;47.098;15.446;2024-01-07T05:49:49;4.20;99.90
7163;DHT22;3623;47.098;15.446;2024-01-07T05:52:19;4.00;99.90
7163;DHT22;3623;47.098;15.446;2024-01-07T05:54:46;4.20;99.90
7163;DHT22;3623;47.098;15.446;2024-01-07T05:57:13;4.10;99.90
7163;DHT22;3623;47.098;15.446;2024-01-07T05:59:40;4.10;99.90
7163;DHT22;3623;47.098;15.446;2024-01-07T06:02:07;4.10;99.90
7163;DHT22;3623;47.098;15.446;2024-01-07T06:04:34;4.10;99.90
7163;DHT22;3623;47.098;15.446;2024-01-07T06:07:02;3.80;99.90
7163;DHT22;3623;47.098;15.446;2024-01-07T06:09:30;4.00;99.90
7163;DHT22;3623;47.098;15.446;2024-01-07T06:11:57;3.90;99.90
7163;DHT22;3623;47.098;15.446;2024-01-07T06:14:24;3.40;99.90
7163;DHT22;3623;47.098;15.446;2024-01-07T06:16:52;3.90;99.90
7163;DHT22;3623;47.098;15.446;2024-01-07T06:19:19;3.90;99.90
7163;DHT22;3623;47.098;15.446;2024-01-07T06:21:46;4.10;99.90
7163;DHT22;3623;47.098;15.446;2024-01-07T06:24:13;4.00;99.90
7163;DHT22;3623;47.098;15.446;2024-01-07T06:26:42;4.10;99.90
7163;DHT22;3623;47.098;15.446;2024-01-07T06:29:09;4.00;99.90
7163;DHT22;3623;47.098;15.446;2024-01-07T06:31:42;3.80;99.90
7163;DHT22;3623;47.098;15.446;2024-01-07T06:34:09;3.80;99.90
7163;DHT22;3623;47.098;15.446;2024-01-07T06:36:39;4.00;99.90
7163;DHT22;3623;47.098;15.446;2024-01-07T06:39:07;3.80;99.90
7163;DHT22;3623;47.098;15.446;2024-01-07T06:41:34;3.90;99.90
7163;DHT22;3623;47.098;15.446;2024-01-07T06:44:03;3.90;99.90
7163;DHT22;3623;47.098;15.446;2024-01-07T06:46:30;3.80;99.90
7163;DHT22;3623;47.098;15.446;2024-01-07T06:48:57;3.80;99.90
7163;DHT22;3623;47.098;15.446;2024-01-07T06:51:24;4.00;99.90
7163;DHT22;3623;47.098;15.446;2024-01-07T06:53:51;3.80;99.90
7163;DHT22;3623;47.098;15.446;2024-01-07T06:56:19;3.80;99.90
7163;DHT22;3623;47.098;15.446;2024-01-07T06:58:46;3.70;99.90
7163;DHT22;3623;47.098;15.446;2024-01-07T07:01:19;3.70;99.90
7163;DHT22;3623;47.098;15.446;2024-01-07T07:03:46;3.90;99.90
7163;DHT22;3623;47.098;15.446;2024-01-07T07:06:13;3.60;99.90
7163;DHT22;3623;47.098;15.446;2024-01-07T07:08:40;3.70;99.90
7163;DHT22;3623;47.098;15.446;2024-01-07T07:11:08;3.60;99.90
7163;DHT22;3623;47.098;15.446;2024-01-07T07:13:35;3.70;99.90
7163;DHT22;3623;47.098;15.446;2024-01-07T07:16:04;3.80;99.90
7163;DHT22;3623;47.098;15.446;2024-01-07T07:18:33;3.70;99.90
7163;DHT22;3623;47.098;15.446;2024-01-07T07:21:00;3.60;99.90
7163;DHT22;3623;47.098;15.446;2024-01-07T07:23:27;3.70;99.90
7163;DHT22;3623;47.098;15.446;2024-01-07T07:25:55;3.80;99.90
7163;DHT22;3623;47.098;15.446;2024-01-07T07:28:22;3.80;99.90
7163;DHT22;3623;47.098;15.446;2024-01-07T07:30:49;3.70;99.90
7163;DHT22;3623;47.098;15.446;2024-01-07T07:33:17;3.70;99.90
7163;DHT22;3623;47.098;15.446;2024-01-07T07:35:45;3.70;99.90
7163;DHT22;3623;47.098;15.446;2024-01-07T07:38:13;3.80;99.90
7163;DHT22;3623;47.098;15.446;2024-01-07T07:40:40;3.80;99.90
7163;DHT22;3623;47.098;15.446;2024-01-07T07:43:08;4.00;99.90
7163;DHT22;3623;47.098;15.446;2024-01-07T07:45:35;4.00;99.90
7163;DHT22;3623;47.098;15.446;2024-01-07T07:48:03;3.80;99.90
7163;DHT22;3623;47.098;15.446;2024-01-07T07:50:31;3.80;99.90
7163;DHT22;3623;47.098;15.446;2024-01-07T07:52:59;4.00;99.90
7163;DHT22;3623;47.098;15.446;2024-01-07T07:55:26;4.10;99.90
7163;DHT22;3623;47.098;15.446;2024-01-07T07:57:54;4.10;99.90
7163;DHT22;3623;47.098;15.446;2024-01-07T08:00:21;3.80;99.90
7163;DHT22;3623;47.098;15.446;2024-01-07T08:02:48;4.20;99.90
7163;DHT22;3623;47.098;15.446;2024-01-07T08:05:15;4.10;99.90
7163;DHT22;3623;47.098;15.446;2024-01-07T08:07:43;2.60;99.90
7163;DHT22;3623;47.098;15.446;2024-01-07T08:10:11;4.00;99.90
7163;DHT22;3623;47.098;15.446;2024-01-07T08:12:38;4.20;99.90
7163;DHT22;3623;47.098;15.446;2024-01-07T08:15:07;4.20;99.90
7163;DHT22;3623;47.098;15.446;2024-01-07T08:17:34;4.10;99.90
7163;DHT22;3623;47.098;15.446;2024-01-07T08:20:01;4.30;99.90
7163;DHT22;3623;47.098;15.446;2024-01-07T08:22:29;4.00;99.90
7163;DHT22;3623;47.098;15.446;2024-01-07T08:24:56;4.00;99.90
7163;DHT22;3623;47.098;15.446;2024-01-07T08:27:25;4.10;99.90
7163;DHT22;3623;47.098;15.446;2024-01-07T08:29:52;4.10;99.90
7163;DHT22;3623;47.098;15.446;2024-01-07T08:32:19;4.00;99.90
7163;DHT22;3623;47.098;15.446;2024-01-07T08:34:48;4.30;99.90
7163;DHT22;3623;47.098;15.446;2024-01-07T08:37:15;4.10;99.90
7163;DHT22;3623;47.098;15.446;2024-01-07T08:39:42;4.10;99.90
7163;DHT22;3623;47.098;15.446;2024-01-07T08:42:09;4.10;99.90
7163;DHT22;3623;47.098;15.446;2024-01-07T08:44:38;4.20;99.90
7163;DHT22;3623;47.098;15.446;2024-01-07T08:47:06;4.60;99.90
7163;DHT22;3623;47.098;15.446;2024-01-07T08:49:33;4.20;99.90
7163;DHT22;3623;47.098;15.446;2024-01-07T08:52:00;4.20;99.90
7163;DHT22;3623;47.098;15.446;2024-01-07T08:54:28;4.10;99.90
7163;DHT22;3623;47.098;15.446;2024-01-07T08:56:55;4.10;99.90
7163;DHT22;3623;47.098;15.446;2024-01-07T08:59:22;4.10;99.90
7163;DHT22;3623;47.098;15.446;2024-01-07T09:01:50;4.10;99.90
7163;DHT22;3623;47.098;15.446;2024-01-07T09:04:17;4.30;99.90
7163;DHT22;3623;47.098;15.446;2024-01-07T09:06:45;4.40;99.90
7163;DHT22;3623;47.098;15.446;2024-01-07T09:09:12;4.40;99.90
7163;DHT22;3623;47.098;15.446;2024-01-07T09:11:39;4.30;99.90
7163;DHT22;3623;47.098;15.446;2024-01-07T09:14:06;4.10;99.90
7163;DHT22;3623;47.098;15.446;2024-01-07T09:16:34;4.30;99.90
7163;DHT22;3623;47.098;15.446;2024-01-07T09:19:02;4.20;99.90
7163;DHT22;3623;47.098;15.446;2024-01-07T09:21:29;4.10;99.90
7163;DHT22;3623;47.098;15.446;2024-01-07T09:23:56;4.20;99.90
7163;DHT22;3623;47.098;15.446;2024-01-07T09:26:24;4.10;99.90
7163;DHT22;3623;47.098;15.446;2024-01-07T09:28:51;4.40;99.90
7163;DHT22;3623;47.098;15.446;2024-01-07T09:31:18;4.30;99.90
7163;DHT22;3623;47.098;15.446;2024-01-07T09:33:45;4.20;99.90
7163;DHT22;3623;47.098;15.446;2024-01-07T09:36:14;4.30;99.90
7163;DHT22;3623;47.098;15.446;2024-01-07T09:38:41;4.30;99.90
7163;DHT22;3623;47.098;15.446;2024-01-07T09:41:09;4.20;99.90
7163;DHT22;3623;47.098;15.446;2024-01-07T09:43:37;4.40;99.90
7163;DHT22;3623;47.098;15.446;2024-01-07T09:46:04;4.40;99.90
7163;DHT22;3623;47.098;15.446;2024-01-07T09:48:31;4.30;99.90
7163;DHT22;3623;47.098;15.446;2024-01-07T09:51:01;4.50;99.90
7163;DHT22;3623;47.098;15.446;2024-01-07T09:53:31;4.30;99.90
7163;DHT22;3623;47.098;15.446;2024-01-07T09:56:06;4.40;99.90
7163;DHT22;3623;47.098;15.446;2024-01-07T09:58:34;4.60;99.90
7163;DHT22;3623;47.098;15.446;2024-01-07T10:01:02;4.70;99.90
7163;DHT22;3623;47.098;15.446;2024-01-07T10:03:30;4.50;99.90
7163;DHT22;3623;47.098;15.446;2024-01-07T10:05:58;4.60;99.90
7163;DHT22;3623;47.098;15.446;2024-01-07T10:08:25;4.60;99.90
7163;DHT22;3623;47.098;15.446;2024-01-07T10:10:53;4.70;99.90
7163;DHT22;3623;47.098;15.446;2024-01-07T10:13:21;4.70;99.90
7163;DHT22;3623;47.098;15.446;2024-01-07T10:15:49;4.80;99.90
7163;DHT22;3623;47.098;15.446;2024-01-07T10:18:16;4.70;99.90
7163;DHT22;3623;47.098;15.446;2024-01-07T10:20:44;4.70;99.90
7163;DHT22;3623;47.098;15.446;2024-01-07T10:23:11;5.00;99.90
7163;DHT22;3623;47.098;15.446;2024-01-07T10:25:39;4.60;99.90
7163;DHT22;3623;47.098;15.446;2024-01-07T10:28:08;4.60;99.90
7163;DHT22;3623;47.098;15.446;2024-01-07T10:30:38;4.70;99.90
7163;DHT22;3623;47.098;15.446;2024-01-07T10:33:07;4.70;99.90
7163;DHT22;3623;47.098;15.446;2024-01-07T10:35:37;4.70;99.90
7163;DHT22;3623;47.098;15.446;2024-01-07T10:38:04;4.70;99.90
7163;DHT22;3623;47.098;15.446;2024-01-07T10:40:32;4.70;99.90
7163;DHT22;3623;47.098;15.446;2024-01-07T10:43:02;4.80;99.90
7163;DHT22;3623;47.098;15.446;2024-01-07T10:45:31;4.80;99.90
7163;DHT22;3623;47.098;15.446;2024-01-07T10:47:59;4.80;99.90
7163;DHT22;3623;47.098;15.446;2024-01-07T10:50:32;4.80;99.90
7163;DHT22;3623;47.098;15.446;2024-01-07T10:53:03;4.90;99.90
7163;DHT22;3623;47.098;15.446;2024-01-07T10:55:34;4.80;99.90
7163;DHT22;3623;47.098;15.446;2024-01-07T10:58:03;4.70;99.90
7163;DHT22;3623;47.098;15.446;2024-01-07T11:00:32;4.70;99.90
7163;DHT22;3623;47.098;15.446;2024-01-07T11:03:06;4.80;99.90
7163;DHT22;3623;47.098;15.446;2024-01-07T11:05:41;5.10;99.90
7163;DHT22;3623;47.098;15.446;2024-01-07T11:08:15;5.10;99.90
7163;DHT22;3623;47.098;15.446;2024-01-07T11:10:48;5.10;99.90
7163;DHT22;3623;47.098;15.446;2024-01-07T11:13:33;5.10;99.90
7163;DHT22;3623;47.098;15.446;2024-01-07T11:16:03;5.30;99.90
7163;DHT22;3623;47.098;15.446;2024-01-07T11:18:31;5.40;99.90
7163;DHT22;3623;47.098;15.446;2024-01-07T11:21:00;5.00;99.90
7163;DHT22;3623;47.098;15.446;2024-01-07T11:23:29;5.10;99.90
7163;DHT22;3623;47.098;15.446;2024-01-07T11:25:59;5.20;99.90
7163;DHT22;3623;47.098;15.446;2024-01-07T11:28:44;5.30;99.90
7163;DHT22;3623;47.098;15.446;2024-01-07T11:31:13;5.30;99.90
7163;DHT22;3623;47.098;15.446;2024-01-07T11:33:43;5.30;99.90
7163;DHT22;3623;47.098;15.446;2024-01-07T11:36:12;5.20;99.90
7163;DHT22;3623;47.098;15.446;2024-01-07T11:38:42;5.40;99.90
7163;DHT22;3623;47.098;15.446;2024-01-07T11:41:11;5.40;99.90
7163;DHT22;3623;47.098;15.446;2024-01-07T11:43:44;5.40;99.90
7163;DHT22;3623;47.098;15.446;2024-01-07T11:46:21;5.50;99.90
7163;DHT22;3623;47.098;15.446;2024-01-07T11:48:48;5.40;99.90
7163;DHT22;3623;47.098;15.446;2024-01-07T11:51:15;5.40;99.90
7163;DHT22;3623;47.098;15.446;2024-01-07T11:53:46;5.50;99.90
7163;DHT22;3623;47.098;15.446;2024-01-07T11:56:13;5.50;99.90
7163;DHT22;3623;47.098;15.446;2024-01-07T11:58:40;5.60;99.90
7163;DHT22;3623;47.098;15.446;2024-01-07T12:01:07;5.60;99.90
7163;DHT22;3623;47.098;15.446;2024-01-07T12:03:36;5.70;99.90
7163;DHT22;3623;47.098;15.446;2024-01-07T12:06:05;5.60;99.90
7163;DHT22;3623;47.098;15.446;2024-01-07T12:08:33;5.60;99.90
7163;DHT22;3623;47.098;15.446;2024-01-07T12:11:01;5.60;99.90
7163;DHT22;3623;47.098;15.446;2024-01-07T12:13:29;5.60;99.90
7163;DHT22;3623;47.098;15.446;2024-01-07T12:15:59;5.50;99.90
7163;DHT22;3623;47.098;15.446;2024-01-07T12:18:27;5.50;99.90
7163;DHT22;3623;47.098;15.446;2024-01-07T12:20:57;5.50;99.90
7163;DHT22;3623;47.098;15.446;2024-01-07T12:23:26;5.40;99.90
7163;DHT22;3623;47.098;15.446;2024-01-07T12:25:55;5.40;99.90
7163;DHT22;3623;47.098;15.446;2024-01-07T12:28:34;5.40;99.90
7163;DHT22;3623;47.098;15.446;2024-01-07T12:31:03;5.30;99.90
7163;DHT22;3623;47.098;15.446;2024-01-07T12:33:32;5.40;99.90
7163;DHT22;3623;47.098;15.446;2024-01-07T12:36:02;5.40;99.90
7163;DHT22;3623;47.098;15.446;2024-01-07T12:38:30;5.50;99.90
7163;DHT22;3623;47.098;15.446;2024-01-07T12:40:58;5.20;99.90
7163;DHT22;3623;47.098;15.446;2024-01-07T12:43:27;5.30;99.90
7163;DHT22;3623;47.098;15.446;2024-01-07T12:45:56;5.30;99.90
7163;DHT22;3623;47.098;15.446;2024-01-07T12:48:30;5.20;99.90
7163;DHT22;3623;47.098;15.446;2024-01-07T12:50:58;5.50;99.90
7163;DHT22;3623;47.098;15.446;2024-01-07T12:53:27;5.30;99.90
7163;DHT22;3623;47.098;15.446;2024-01-07T12:55:55;5.20;99.90
7163;DHT22;3623;47.098;15.446;2024-01-07T12:58:23;5.20;99.90
7163;DHT22;3623;47.098;15.446;2024-01-07T13:00:51;5.20;99.90
7163;DHT22;3623;47.098;15.446;2024-01-07T13:03:20;5.30;99.90
7163;DHT22;3623;47.098;15.446;2024-01-07T13:05:49;5.20;99.90
7163;DHT22;3623;47.098;15.446;2024-01-07T13:08:17;5.30;99.90
7163;DHT22;3623;47.098;15.446;2024-01-07T13:10:49;5.20;99.90
7163;DHT22;3623;47.098;15.446;2024-01-07T13:13:18;5.40;99.90
7163;DHT22;3623;47.098;15.446;2024-01-07T13:15:46;5.20;99.90
7163;DHT22;3623;47.098;15.446;2024-01-07T13:18:14;5.20;99.90
7163;DHT22;3623;47.098;15.446;2024-01-07T13:20:43;5.20;99.90
7163;DHT22;3623;47.098;15.446;2024-01-07T13:23:10;5.10;99.90
7163;DHT22;3623;47.098;15.446;2024-01-07T13:25:37;5.00;99.90
7163;DHT22;3623;47.098;15.446;2024-01-07T13:28:06;5.10;99.90
7163;DHT22;3623;47.098;15.446;2024-01-07T13:30:37;5.10;99.90
7163;DHT22;3623;47.098;15.446;2024-01-07T13:33:06;5.30;99.90
7163;DHT22;3623;47.098;15.446;2024-01-07T13:35:34;5.10;99.90
7163;DHT22;3623;47.098;15.446;2024-01-07T13:38:01;5.10;99.90
7163;DHT22;3623;47.098;15.446;2024-01-07T13:40:28;5.10;99.90
7163;DHT22;3623;47.098;15.446;2024-01-07T13:42:55;5.20;99.90
7163;DHT22;3623;47.098;15.446;2024-01-07T13:45:24;5.10;99.90
7163;DHT22;3623;47.098;15.446;2024-01-07T13:47:51;5.10;99.90
7163;DHT22;3623;47.098;15.446;2024-01-07T13:50:18;5.20;99.90
7163;DHT22;3623;47.098;15.446;2024-01-07T13:52:45;5.30;99.90
7163;DHT22;3623;47.098;15.446;2024-01-07T13:55:13;5.10;99.90
7163;DHT22;3623;47.098;15.446;2024-01-07T13:57:40;5.20;99.90
7163;DHT22;3623;47.098;15.446;2024-01-07T14:00:08;5.20;99.90
7163;DHT22;3623;47.098;15.446;2024-01-07T14:02:37;5.20;99.90
7163;DHT22;3623;47.098;15.446;2024-01-07T14:05:06;5.10;99.90
7163;DHT22;3623;47.098;15.446;2024-01-07T14:07:36;5.20;99.90
7163;DHT22;3623;47.098;15.446;2024-01-07T14:10:04;5.20;99.90
7163;DHT22;3623;47.098;15.446;2024-01-07T14:12:31;5.10;99.90
7163;DHT22;3623;47.098;15.446;2024-01-07T14:14:59;5.00;99.90
7163;DHT22;3623;47.098;15.446;2024-01-07T14:17:26;5.20;99.90
7163;DHT22;3623;47.098;15.446;2024-01-07T14:19:54;5.10;99.90
7163;DHT22;3623;47.098;15.446;2024-01-07T14:22:22;5.00;99.90
7163;DHT22;3623;47.098;15.446;2024-01-07T14:24:49;5.10;99.90
7163;DHT22;3623;47.098;15.446;2024-01-07T14:27:17;5.00;99.90
7163;DHT22;3623;47.098;15.446;2024-01-07T14:29:44;5.00;99.90
7163;DHT22;3623;47.098;15.446;2024-01-07T14:32:12;4.90;99.90
7163;DHT22;3623;47.098;15.446;2024-01-07T14:34:40;4.90;99.90
7163;DHT22;3623;47.098;15.446;2024-01-07T14:37:09;4.90;99.90
7163;DHT22;3623;47.098;15.446;2024-01-07T14:39:37;4.30;99.90
7163;DHT22;3623;47.098;15.446;2024-01-07T14:42:05;4.90;99.90
7163;DHT22;3623;47.098;15.446;2024-01-07T14:44:32;4.90;99.90
7163;DHT22;3623;47.098;15.446;2024-01-07T14:46:59;4.90;99.90
7163;DHT22;3623;47.098;15.446;2024-01-07T14:49:26;4.70;99.90
7163;DHT22;3623;47.098;15.446;2024-01-07T14:51:53;4.90;99.90
7163;DHT22;3623;47.098;15.446;2024-01-07T14:54:22;5.00;99.90
7163;DHT22;3623;47.098;15.446;2024-01-07T14:56:49;4.90;99.90
7163;DHT22;3623;47.098;15.446;2024-01-07T14:59:16;4.60;99.90
7163;DHT22;3623;47.098;15.446;2024-01-07T15:01:43;4.70;99.90
7163;DHT22;3623;47.098;15.446;2024-01-07T15:04:11;4.60;99.90
7163;DHT22;3623;47.098;15.446;2024-01-07T15:06:41;4.60;99.90
7163;DHT22;3623;47.098;15.446;2024-01-07T15:09:09;4.60;99.90
7163;DHT22;3623;47.098;15.446;2024-01-07T15:11:40;4.60;99.90
7163;DHT22;3623;47.098;15.446;2024-01-07T15:14:10;4.50;99.90
7163;DHT22;3623;47.098;15.446;2024-01-07T15:16:37;4.40;99.90
7163;DHT22;3623;47.098;15.446;2024-01-07T15:19:04;4.50;99.90
7163;DHT22;3623;47.098;15.446;2024-01-07T15:21:32;4.40;99.90
7163;DHT22;3623;47.098;15.446;2024-01-07T15:23:59;4.40;99.90
7163;DHT22;3623;47.098;15.446;2024-01-07T15:26:26;4.50;99.90
7163;DHT22;3623;47.098;15.446;2024-01-07T15:28:54;4.40;99.90
7163;DHT22;3623;47.098;15.446;2024-01-07T15:31:21;4.40;99.90
7163;DHT22;3623;47.098;15.446;2024-01-07T15:33:49;4.40;99.90
7163;DHT22;3623;47.098;15.446;2024-01-07T15:36:16;4.30;99.90
7163;DHT22;3623;47.098;15.446;2024-01-07T15:38:43;4.30;99.90
7163;DHT22;3623;47.098;15.446;2024-01-07T15:41:11;4.30;99.90
7163;DHT22;3623;47.098;15.446;2024-01-07T15:43:38;4.30;99.90
7163;DHT22;3623;47.098;15.446;2024-01-07T15:46:07;4.30;99.90
7163;DHT22;3623;47.098;15.446;2024-01-07T15:48:34;4.10;99.90
7163;DHT22;3623;47.098;15.446;2024-01-07T15:51:01;4.10;99.90
7163;DHT22;3623;47.098;15.446;2024-01-07T15:53:29;4.30;99.90
7163;DHT22;3623;47.098;15.446;2024-01-07T15:55:59;4.20;99.90
7163;DHT22;3623;47.098;15.446;2024-01-07T15:58:28;4.20;99.90
7163;DHT22;3623;47.098;15.446;2024-01-07T16:00:58;4.10;99.90
7163;DHT22;3623;47.098;15.446;2024-01-07T16:03:27;4.10;99.90
7163;DHT22;3623;47.098;15.446;2024-01-07T16:05:54;4.10;99.90